createdAt,value
2023-02-16T00:00:30.530Z,2.00
2023-02-16T00:02:59.565Z,2.75
2023-02-16T00:05:31.327Z,2.00
2023-02-16T00:08:01.666Z,2.00
2023-02-16T00:10:38.749Z,1.00
2023-02-16T00:13:46.222Z,2.75
2023-02-16T00:16:23.350Z,2.00
2023-02-16T00:18:53.009Z,2.00
2023-02-16T00:21:22.204Z,2.00
2023-02-16T00:23:50.709Z,3.00
2023-02-16T00:26:25.129Z,3.25
2023-02-16T00:29:01.732Z,2.25
2023-02-16T00:31:34.387Z,2.25
2023-02-16T00:34:25.791Z,3.00
2023-02-16T00:36:54.108Z,2.00
2023-02-16T00:39:22.771Z,3.00
2023-02-16T00:41:54.830Z,2.75
2023-02-16T00:44:39.261Z,2.25
2023-02-16T00:47:29.045Z,3.00
2023-02-16T00:49:58.317Z,11.75
2023-02-16T00:52:38.727Z,8.00
2023-02-16T00:55:15.286Z,14.00
2023-02-16T00:57:49.365Z,7.00
2023-02-16T01:00:20.912Z,14.00
2023-02-16T01:02:51.481Z,12.00
2023-02-16T01:05:19.961Z,14.00
2023-02-16T01:08:07.089Z,8.00
2023-02-16T01:10:55.727Z,7.00
2023-02-16T01:13:24.912Z,7.00
2023-02-16T01:15:53.667Z,6.00
2023-02-16T01:18:23.239Z,4.00
2023-02-16T01:20:54.998Z,4.00
2023-02-16T01:23:23.285Z,4.00
2023-02-16T01:25:51.686Z,2.00
2023-02-16T01:28:27.678Z,4.00
2023-02-16T01:30:56.105Z,2.25
2023-02-16T01:33:24.501Z,2.25
2023-02-16T01:35:54.880Z,3.00
2023-02-16T01:38:27.146Z,2.50
2023-02-16T01:41:30.811Z,2.75
2023-02-16T01:44:07.050Z,2.00
2023-02-16T01:46:40.701Z,2.00
2023-02-16T01:49:17.923Z,2.00
2023-02-16T01:52:20.305Z,2.00
2023-02-16T01:54:54.246Z,2.75
2023-02-16T01:57:44.814Z,2.00
2023-02-16T02:00:33.957Z,3.00
2023-02-16T02:03:22.714Z,1.50
2023-02-16T02:05:52.634Z,1.00
2023-02-16T02:08:42.374Z,2.25
2023-02-16T02:11:33.473Z,2.00
2023-02-16T02:14:10.957Z,2.00
2023-02-16T02:16:39.332Z,1.50
2023-02-16T02:19:07.665Z,2.00
2023-02-16T02:22:02.786Z,1.75
2023-02-16T02:25:01.521Z,1.00
2023-02-16T02:28:13.357Z,0.25
2023-02-16T02:30:59.672Z,2.00
2023-02-16T02:34:03.115Z,1.00
2023-02-16T02:36:34.417Z,1.75
2023-02-16T02:39:28.847Z,1.00
2023-02-16T02:42:15.402Z,1.00
2023-02-16T02:45:03.336Z,1.00
2023-02-16T02:47:43.928Z,1.75
2023-02-16T02:50:36.750Z,1.25
2023-02-16T02:53:13.629Z,1.00
2023-02-16T02:56:06.800Z,1.00
2023-02-16T02:59:12.902Z,2.00
2023-02-16T03:01:48.234Z,0.00
2023-02-16T03:04:22.364Z,1.50
2023-02-16T03:06:55.107Z,1.50
2023-02-16T03:09:24.337Z,1.75
2023-02-16T03:12:15.391Z,2.00
2023-02-16T03:14:49.454Z,2.00
2023-02-16T03:17:40.478Z,1.75
2023-02-16T03:20:34.266Z,1.25
2023-02-16T03:23:22.790Z,0.25
2023-02-16T03:26:12.883Z,2.75
2023-02-16T03:29:03.053Z,2.00
2023-02-16T03:31:37.177Z,2.00
2023-02-16T03:34:07.107Z,2.00
2023-02-16T03:36:38.430Z,4.00
2023-02-16T03:39:08.185Z,3.00
2023-02-16T03:41:41.648Z,3.00
2023-02-16T03:44:10.493Z,7.25
2023-02-16T03:46:39.032Z,2.00
2023-02-16T03:49:07.478Z,3.50
2023-02-16T03:51:35.780Z,2.75
2023-02-16T03:54:04.353Z,2.50
2023-02-16T03:56:32.722Z,2.00
2023-02-16T03:59:01.160Z,2.00
2023-02-16T04:01:29.532Z,3.00
2023-02-16T04:03:57.961Z,2.00
2023-02-16T04:06:26.338Z,2.00
2023-02-16T04:08:55.520Z,2.75
2023-02-16T04:11:42.016Z,2.00
2023-02-16T04:14:10.458Z,2.00
2023-02-16T04:16:38.823Z,4.00
2023-02-16T04:19:08.519Z,3.75
2023-02-16T04:21:36.911Z,2.00
2023-02-16T04:24:06.757Z,3.00
2023-02-16T04:26:35.171Z,3.00
2023-02-16T04:29:03.471Z,2.00
2023-02-16T04:31:31.943Z,2.50
2023-02-16T04:34:00.348Z,3.75
2023-02-16T04:36:28.712Z,4.50
2023-02-16T04:38:57.020Z,2.50
2023-02-16T04:41:27.433Z,2.25
2023-02-16T04:43:55.744Z,2.25
2023-02-16T04:46:24.858Z,3.00
2023-02-16T04:48:53.481Z,3.00
2023-02-16T04:51:21.822Z,3.00
2023-02-16T04:53:50.158Z,2.75
2023-02-16T04:56:18.689Z,3.75
2023-02-16T04:58:47.046Z,3.00
2023-02-16T05:01:27.192Z,3.50
2023-02-16T05:03:56.038Z,3.00
2023-02-16T05:06:24.578Z,3.00
2023-02-16T05:08:52.854Z,4.00
2023-02-16T05:11:39.418Z,3.00
2023-02-16T05:14:26.139Z,3.00
2023-02-16T05:16:55.145Z,4.00
2023-02-16T05:19:23.449Z,2.25
2023-02-16T05:21:51.754Z,2.00
2023-02-16T05:24:20.082Z,2.25
2023-02-16T05:26:48.430Z,3.25
2023-02-16T05:29:16.794Z,4.25
2023-02-16T05:31:45.248Z,3.00
2023-02-16T05:34:13.723Z,3.00
2023-02-16T05:36:42.378Z,3.25
2023-02-16T05:39:10.975Z,4.25
2023-02-16T05:41:41.890Z,5.00
2023-02-16T05:44:10.981Z,2.50
2023-02-16T05:46:41.067Z,2.00
2023-02-16T05:49:10.351Z,3.00
2023-02-16T05:51:39.023Z,5.00
2023-02-16T05:54:08.019Z,3.25
2023-02-16T05:56:36.314Z,2.25
2023-02-16T05:59:04.725Z,2.50
2023-02-16T06:01:33.032Z,3.00
2023-02-16T06:04:01.441Z,3.00
2023-02-16T06:06:29.861Z,2.75
2023-02-16T06:08:58.179Z,3.00
2023-02-16T06:11:38.832Z,3.00
2023-02-16T06:14:19.337Z,3.75
2023-02-16T06:16:49.800Z,2.50
2023-02-16T06:19:19.348Z,3.25
2023-02-16T06:21:48.529Z,4.00
2023-02-16T06:24:16.909Z,6.00
2023-02-16T06:26:45.248Z,3.50
2023-02-16T06:29:13.592Z,4.00
2023-02-16T06:31:41.962Z,4.50
2023-02-16T06:34:10.424Z,4.25
2023-02-16T06:36:41.241Z,3.25
2023-02-16T06:39:11.330Z,3.00
2023-02-16T06:41:41.208Z,3.00
2023-02-16T06:44:14.952Z,4.50
2023-02-16T06:46:45.273Z,5.00
2023-02-16T06:49:19.258Z,4.50
2023-02-16T06:51:49.381Z,3.75
2023-02-16T06:54:19.268Z,4.00
2023-02-16T06:56:47.572Z,3.00
2023-02-16T06:59:15.949Z,7.00
2023-02-16T07:01:45.308Z,4.75
2023-02-16T07:04:14.654Z,3.50
2023-02-16T07:06:43.226Z,5.25
2023-02-16T07:09:12.752Z,3.75
2023-02-16T07:11:41.492Z,4.00
2023-02-16T07:14:10.011Z,5.00
2023-02-16T07:16:38.446Z,3.25
2023-02-16T07:19:07.860Z,3.50
2023-02-16T07:21:36.389Z,3.00
2023-02-16T07:24:05.410Z,5.00
2023-02-16T07:26:34.515Z,5.00
2023-02-16T07:29:02.921Z,11.75
2023-02-16T07:31:31.429Z,10.25
2023-02-16T07:33:59.884Z,7.00
2023-02-16T07:36:28.219Z,19.00
2023-02-16T07:38:56.573Z,16.75
2023-02-16T07:41:24.869Z,9.50
2023-02-16T07:43:53.169Z,6.00
2023-02-16T07:46:21.490Z,5.00
2023-02-16T07:48:51.093Z,6.25
2023-02-16T07:51:24.690Z,4.50
2023-02-16T07:53:53.948Z,4.50
2023-02-16T07:56:24.180Z,6.25
2023-02-16T07:58:57.197Z,6.00
2023-02-16T08:01:26.462Z,4.75
2023-02-16T08:03:55.258Z,8.25
2023-02-16T08:06:24.078Z,5.00
2023-02-16T08:08:52.412Z,3.00
2023-02-16T08:11:23.567Z,5.50
2023-02-16T08:13:52.992Z,4.75
2023-02-16T08:16:26.245Z,4.00
2023-02-16T08:18:57.224Z,3.75
2023-02-16T08:21:30.851Z,5.00
2023-02-16T08:24:05.844Z,4.00
2023-02-16T08:26:42.565Z,3.50
2023-02-16T08:29:13.553Z,4.25
2023-02-16T08:31:42.757Z,3.75
2023-02-16T08:34:11.606Z,3.25
2023-02-16T08:36:41.096Z,4.50
2023-02-16T08:39:15.798Z,4.00
2023-02-16T08:41:46.346Z,3.50
2023-02-16T08:44:16.476Z,2.75
2023-02-16T08:46:47.544Z,5.00
2023-02-16T08:49:18.376Z,3.25
2023-02-16T08:51:49.988Z,3.00
2023-02-16T08:54:20.824Z,4.25
2023-02-16T08:56:50.577Z,4.00
2023-02-16T08:59:21.031Z,5.25
2023-02-16T09:01:49.937Z,4.00
2023-02-16T09:04:20.739Z,3.75
2023-02-16T09:06:49.946Z,5.75
2023-02-16T09:09:18.936Z,4.75
2023-02-16T09:11:47.840Z,4.50
2023-02-16T09:14:19.386Z,3.25
2023-02-16T09:16:47.764Z,4.50
2023-02-16T09:19:21.750Z,4.50
2023-02-16T09:21:51.742Z,4.25
2023-02-16T09:24:20.350Z,4.50
2023-02-16T09:26:49.593Z,4.50
2023-02-16T09:29:19.099Z,3.50
2023-02-16T09:31:47.488Z,4.75
2023-02-16T09:34:19.290Z,5.00
2023-02-16T09:36:48.371Z,4.75
2023-02-16T09:39:18.021Z,4.25
2023-02-16T09:42:22.776Z,4.75
2023-02-16T09:44:55.754Z,5.25
2023-02-16T09:47:31.971Z,5.00
2023-02-16T09:50:07.444Z,5.00
2023-02-16T09:52:42.767Z,4.00
2023-02-16T09:55:17.686Z,5.75
2023-02-16T09:58:13.956Z,5.25
2023-02-16T10:00:51.830Z,5.00
2023-02-16T10:03:50.169Z,5.25
2023-02-16T10:06:49.182Z,9.75
2023-02-16T10:09:20.559Z,12.25
2023-02-16T10:12:06.523Z,7.25
2023-02-16T10:14:38.072Z,6.25
2023-02-16T10:17:25.186Z,6.25
2023-02-16T10:20:17.816Z,4.75
2023-02-16T10:23:04.446Z,10.75
2023-02-16T10:25:57.439Z,12.25
2023-02-16T10:28:42.501Z,5.75
2023-02-16T10:31:37.910Z,10.00
2023-02-16T10:34:24.384Z,11.75
2023-02-16T10:37:23.217Z,10.25
2023-02-16T10:40:24.074Z,9.75
2023-02-16T10:43:24.823Z,8.50
2023-02-16T10:45:55.601Z,8.50
2023-02-16T10:48:25.181Z,10.50
2023-02-16T10:51:07.142Z,10.00
2023-02-16T10:53:51.094Z,8.00
2023-02-16T10:56:19.344Z,9.25
2023-02-16T10:58:48.942Z,10.00
2023-02-16T11:01:19.861Z,9.00
2023-02-16T11:03:54.322Z,7.25
2023-02-16T11:06:26.561Z,7.75
2023-02-16T11:08:58.791Z,9.00
2023-02-16T11:11:28.236Z,5.75
2023-02-16T11:14:06.840Z,7.00
2023-02-16T11:16:36.977Z,6.25
2023-02-16T11:19:10.179Z,6.50
2023-02-16T11:21:49.478Z,7.75
2023-02-16T11:24:38.183Z,7.00
2023-02-16T11:27:21.001Z,7.00
2023-02-16T11:29:50.025Z,7.50
2023-02-16T11:32:22.435Z,7.75
2023-02-16T11:34:52.602Z,6.50
2023-02-16T11:37:32.003Z,7.25
2023-02-16T11:40:01.962Z,7.75
2023-02-16T11:42:32.483Z,7.50
2023-02-16T11:45:03.085Z,6.75
2023-02-16T11:47:41.378Z,8.25
2023-02-16T11:50:31.419Z,8.75
2023-02-16T11:53:23.778Z,11.75
2023-02-16T11:55:52.281Z,10.25
2023-02-16T11:58:27.096Z,10.50
2023-02-16T12:01:10.261Z,9.25
2023-02-16T12:03:51.350Z,11.00
2023-02-16T12:06:37.909Z,12.25
2023-02-16T12:09:33.788Z,10.00
2023-02-16T12:12:17.558Z,12.25
2023-02-16T12:15:22.287Z,11.25
2023-02-16T12:18:11.961Z,13.00
2023-02-16T12:21:13.999Z,13.25
2023-02-16T12:24:11.588Z,12.25
2023-02-16T12:27:15.802Z,12.75
2023-02-16T12:29:59.063Z,13.50
2023-02-16T12:32:38.478Z,15.50
2023-02-16T12:35:21.635Z,13.50
2023-02-16T12:38:20.270Z,13.75
2023-02-16T12:41:20.496Z,12.00
2023-02-16T12:44:26.221Z,12.75
2023-02-16T12:47:07.248Z,12.75
2023-02-16T12:49:57.411Z,12.00
2023-02-16T12:52:48.181Z,13.00
2023-02-16T12:55:44.162Z,14.00
2023-02-16T12:58:21.015Z,12.75
2023-02-16T13:01:26.684Z,13.50
2023-02-16T13:04:15.438Z,12.75
2023-02-16T13:06:47.437Z,13.25
2023-02-16T13:09:49.148Z,14.50
2023-02-16T13:12:40.596Z,11.25
2023-02-16T13:15:23.838Z,12.50
2023-02-16T13:18:03.380Z,11.00
2023-02-16T13:20:33.055Z,13.75
2023-02-16T13:23:38.931Z,11.00
2023-02-16T13:26:33.304Z,10.50
2023-02-16T13:29:11.773Z,13.25
2023-02-16T13:31:48.921Z,12.50
2023-02-16T13:34:53.421Z,11.50
2023-02-16T13:37:39.663Z,11.25
2023-02-16T13:40:13.915Z,12.75
2023-02-16T13:43:02.828Z,11.50
2023-02-16T13:45:38.660Z,12.50
2023-02-16T13:48:23.667Z,15.00
2023-02-16T13:51:04.812Z,11.50
2023-02-16T13:53:43.451Z,15.00
2023-02-16T13:56:25.105Z,13.25
2023-02-16T13:58:54.430Z,13.50
2023-02-16T14:01:44.015Z,14.00
2023-02-16T14:04:24.568Z,11.75
2023-02-16T14:07:05.661Z,14.25
2023-02-16T14:09:40.277Z,13.00
2023-02-16T14:12:15.388Z,13.00
2023-02-16T14:14:43.653Z,12.50
2023-02-16T14:17:22.503Z,12.00
2023-02-16T14:20:06.219Z,12.75
2023-02-16T14:22:40.303Z,12.00
2023-02-16T14:25:29.945Z,13.75
2023-02-16T14:28:06.216Z,13.00
2023-02-16T14:30:40.634Z,14.50
2023-02-16T14:33:35.175Z,12.75
2023-02-16T14:36:03.444Z,14.00
2023-02-16T14:38:38.303Z,13.50
2023-02-16T14:41:14.661Z,13.50
2023-02-16T14:43:51.680Z,13.75
2023-02-16T14:46:49.388Z,13.00
2023-02-16T14:49:47.637Z,15.00
2023-02-16T14:52:18.610Z,12.50
2023-02-16T14:55:24.443Z,14.75
2023-02-16T14:57:55.457Z,13.00
2023-02-16T15:00:34.584Z,14.00
2023-02-16T15:03:14.909Z,14.75
2023-02-16T15:05:50.755Z,13.75
2023-02-16T15:08:24.916Z,14.75
2023-02-16T15:10:57.495Z,13.75
2023-02-16T15:13:29.018Z,14.75
2023-02-16T15:16:01.329Z,13.75
2023-02-16T15:18:54.738Z,16.00
2023-02-16T15:21:29.281Z,15.00
2023-02-16T15:24:02.434Z,14.50
2023-02-16T15:26:36.796Z,13.75
2023-02-16T15:29:24.110Z,12.75
2023-02-16T15:31:52.781Z,17.75
2023-02-16T15:34:31.828Z,14.00
2023-02-16T15:37:01.676Z,13.00
2023-02-16T15:39:51.931Z,13.25
2023-02-16T15:42:30.623Z,12.00
2023-02-16T15:44:59.055Z,11.50
2023-02-16T15:47:28.263Z,10.50
2023-02-16T15:49:56.589Z,11.25
2023-02-16T15:52:36.644Z,13.75
2023-02-16T15:55:10.063Z,11.00
2023-02-16T15:57:41.707Z,10.25
2023-02-16T16:00:20.330Z,10.00
2023-02-16T16:02:55.457Z,11.75
2023-02-16T16:05:30.210Z,11.75
2023-02-16T16:07:58.771Z,9.00
2023-02-16T16:10:31.732Z,10.00
2023-02-16T16:13:04.994Z,9.25
2023-02-16T16:15:40.028Z,9.00
2023-02-16T16:18:28.186Z,9.00
2023-02-16T16:21:03.484Z,11.50
2023-02-16T16:23:31.917Z,10.00
2023-02-16T16:26:03.715Z,9.00
2023-02-16T16:28:32.093Z,9.50
2023-02-16T16:31:15.631Z,8.00
2023-02-16T16:34:00.292Z,9.50
2023-02-16T16:36:36.725Z,7.50
2023-02-16T16:39:21.570Z,8.00
2023-02-16T16:42:19.762Z,6.50
2023-02-16T16:45:00.746Z,8.75
2023-02-16T16:47:42.063Z,7.75
2023-02-16T16:50:16.147Z,8.25
2023-02-16T16:52:45.868Z,7.50
2023-02-16T16:55:23.299Z,9.00
2023-02-16T16:57:54.251Z,6.50
2023-02-16T17:00:23.983Z,8.25
2023-02-16T17:02:53.324Z,9.75
2023-02-16T17:05:22.197Z,7.00
2023-02-16T17:07:51.104Z,7.00
2023-02-16T17:10:21.569Z,9.00
2023-02-16T17:12:56.916Z,7.75
2023-02-16T17:16:02.514Z,8.00
2023-02-16T17:18:32.089Z,7.25
2023-02-16T17:21:00.679Z,8.50
2023-02-16T17:23:28.973Z,8.25
2023-02-16T17:25:57.335Z,8.25
2023-02-16T17:28:25.679Z,7.00
2023-02-16T17:30:53.964Z,8.25
2023-02-16T17:33:22.238Z,7.75
2023-02-16T17:35:50.551Z,7.25
2023-02-16T17:38:21.553Z,8.50
2023-02-16T17:40:55.304Z,9.00
2023-02-16T17:43:24.878Z,9.00
2023-02-16T17:45:55.828Z,6.00
2023-02-16T17:48:28.656Z,9.00
2023-02-16T17:51:00.140Z,8.25
2023-02-16T17:53:29.198Z,7.00
2023-02-16T17:55:59.041Z,8.50
2023-02-16T17:58:27.676Z,8.00
2023-02-16T18:00:56.069Z,7.25
2023-02-16T18:03:26.011Z,7.00
2023-02-16T18:05:54.850Z,8.25
2023-02-16T18:08:23.410Z,7.00
2023-02-16T18:10:55.193Z,7.00
2023-02-16T18:13:23.477Z,8.25
2023-02-16T18:15:51.831Z,8.75
2023-02-16T18:18:20.424Z,8.50
2023-02-16T18:20:49.109Z,6.50
2023-02-16T18:23:17.574Z,6.75
2023-02-16T18:25:46.626Z,7.25
2023-02-16T18:28:19.289Z,7.50
2023-02-16T18:30:50.121Z,6.75
2023-02-16T18:33:21.905Z,6.25
2023-02-16T18:35:53.688Z,6.00
2023-02-16T18:38:22.916Z,6.25
2023-02-16T18:40:52.975Z,6.00
2023-02-16T18:43:22.054Z,7.50
2023-02-16T18:45:52.950Z,5.00
2023-02-16T18:48:21.332Z,8.25
2023-02-16T18:50:49.682Z,6.25
2023-02-16T18:53:17.984Z,7.00
2023-02-16T18:55:46.332Z,9.00
2023-02-16T18:58:15.870Z,7.75
2023-02-16T19:00:44.990Z,6.00
2023-02-16T19:03:13.605Z,6.25
2023-02-16T19:05:42.359Z,7.00
2023-02-16T19:08:10.649Z,6.00
2023-02-16T19:10:38.957Z,6.00
2023-02-16T19:13:08.241Z,6.25
2023-02-16T19:15:39.700Z,8.25
2023-02-16T19:18:07.975Z,6.25
2023-02-16T19:20:36.951Z,6.25
2023-02-16T19:23:05.300Z,9.00
2023-02-16T19:25:33.645Z,6.50
2023-02-16T19:28:01.953Z,7.00
2023-02-16T19:30:30.591Z,6.00
2023-02-16T19:32:59.405Z,8.00
2023-02-16T19:35:27.694Z,6.25
2023-02-16T19:37:56.824Z,7.00
2023-02-16T19:40:25.129Z,7.00
2023-02-16T19:42:53.521Z,7.00
2023-02-16T19:45:21.856Z,7.00
2023-02-16T19:47:52.309Z,6.25
2023-02-16T19:50:20.771Z,6.00
2023-02-16T19:52:49.067Z,6.00
2023-02-16T19:55:17.569Z,7.25
2023-02-16T19:57:45.841Z,7.00
2023-02-16T20:00:15.069Z,7.50
2023-02-16T20:02:43.398Z,6.50
2023-02-16T20:05:12.224Z,6.25
2023-02-16T20:07:40.666Z,6.25
2023-02-16T20:10:09.561Z,7.75
2023-02-16T20:12:38.591Z,7.75
2023-02-16T20:15:07.502Z,7.50
2023-02-16T20:17:35.796Z,6.75
2023-02-16T20:20:05.019Z,7.00
2023-02-16T20:22:33.500Z,8.00
2023-02-16T20:25:01.797Z,7.00
2023-02-16T20:27:30.113Z,9.00
2023-02-16T20:29:58.386Z,7.50
2023-02-16T20:32:28.200Z,8.25
2023-02-16T20:34:56.573Z,8.75
2023-02-16T20:37:24.934Z,6.50
2023-02-16T20:39:53.300Z,8.50
2023-02-16T20:42:21.585Z,7.00
2023-02-16T20:44:49.907Z,7.75
2023-02-16T20:47:18.422Z,7.50
2023-02-16T20:49:46.718Z,7.25
2023-02-16T20:52:15.460Z,7.75
2023-02-16T20:54:43.912Z,9.00
2023-02-16T20:57:25.647Z,7.00
2023-02-16T20:59:55.280Z,7.00
2023-02-16T21:02:24.045Z,9.00
2023-02-16T21:04:52.463Z,8.75
2023-02-16T21:07:20.803Z,8.00
2023-02-16T21:09:49.118Z,7.75
2023-02-16T21:12:17.429Z,9.25
2023-02-16T21:14:45.755Z,9.25
2023-02-16T21:17:14.087Z,7.75
2023-02-16T21:19:42.392Z,9.00
2023-02-16T21:22:10.971Z,10.75
2023-02-16T21:24:41.633Z,7.75
2023-02-16T21:27:10.036Z,8.75
2023-02-16T21:29:39.133Z,9.00
2023-02-16T21:32:07.522Z,8.25
2023-02-16T21:34:36.652Z,7.25
2023-02-16T21:37:05.752Z,8.75
2023-02-16T21:39:52.361Z,8.75
2023-02-16T21:42:20.709Z,9.00
2023-02-16T21:44:50.893Z,7.50
2023-02-16T21:47:37.640Z,8.25
2023-02-16T21:50:06.093Z,7.00
2023-02-16T21:52:34.379Z,8.00
2023-02-16T21:55:21.078Z,7.00
2023-02-16T21:57:49.946Z,9.00
2023-02-16T22:00:18.476Z,9.00
2023-02-16T22:02:46.763Z,7.00
2023-02-16T22:05:15.166Z,7.75
2023-02-16T22:07:43.520Z,9.00
2023-02-16T22:10:12.004Z,6.50
2023-02-16T22:12:40.287Z,8.00
2023-02-16T22:15:08.892Z,8.00
2023-02-16T22:17:37.209Z,8.25
2023-02-16T22:20:05.992Z,8.25
2023-02-16T22:22:34.698Z,7.25
2023-02-16T22:25:03.066Z,7.50
2023-02-16T22:27:31.377Z,9.00
2023-02-16T22:29:59.693Z,8.00
2023-02-16T22:32:28.032Z,7.75
2023-02-16T22:34:56.360Z,8.25
2023-02-16T22:37:24.832Z,8.00
2023-02-16T22:39:55.982Z,7.75
2023-02-16T22:42:24.546Z,6.50
2023-02-16T22:44:52.867Z,6.50
2023-02-16T22:47:21.336Z,8.00
2023-02-16T22:49:49.652Z,8.75
2023-02-16T22:52:18.004Z,9.00
2023-02-16T22:54:46.463Z,9.50
2023-02-16T22:57:14.755Z,7.00
2023-02-16T22:59:43.040Z,8.50
2023-02-16T23:02:11.380Z,8.00
2023-02-16T23:04:41.192Z,9.00
2023-02-16T23:07:10.669Z,8.75
2023-02-16T23:09:39.360Z,9.50
2023-02-16T23:12:07.822Z,10.00
2023-02-16T23:14:38.954Z,11.25
2023-02-16T23:17:07.253Z,10.25
2023-02-16T23:19:35.538Z,10.25
2023-02-16T23:22:03.847Z,11.75
2023-02-16T23:24:32.137Z,11.00
2023-02-16T23:27:00.510Z,10.25
2023-02-16T23:29:29.012Z,10.00
2023-02-16T23:31:57.377Z,10.25
2023-02-16T23:34:25.701Z,10.00
2023-02-16T23:36:54.067Z,9.50
2023-02-16T23:39:22.339Z,10.50
2023-02-16T23:41:50.676Z,11.25
2023-02-16T23:44:19.326Z,11.25
2023-02-16T23:46:47.673Z,9.50
2023-02-16T23:49:16.121Z,10.00
2023-02-16T23:51:44.406Z,10.00
2023-02-16T23:54:12.870Z,10.50
2023-02-16T23:56:42.172Z,12.50
2023-02-16T23:59:10.524Z,10.75
